sensor_id;sensor_type;location;lat;lon;timestamp;P1;durP1;ratioP1;P2;durP2;ratioP2
21022;SDS011;10669;51.076;3.714;2022-09-09T00:00:59;4.77;;;1.97;;
21022;SDS011;10669;51.076;3.714;2022-09-09T00:06:31;12.63;;;2.47;;
21022;SDS011;10669;51.076;3.714;2022-09-09T00:09:02;9.90;;;2.27;;
21022;SDS011;10669;51.076;3.714;2022-09-09T00:14:54;6.77;;;2.23;;
21022;SDS011;10669;51.076;3.714;2022-09-09T00:17:53;3.33;;;1.57;;
21022;SDS011;10669;51.076;3.714;2022-09-09T00:20:11;9.70;;;2.20;;
21022;SDS011;10669;51.076;3.714;2022-09-09T00:23:08;7.27;;;2.40;;
21022;SDS011;10669;51.076;3.714;2022-09-09T00:28:30;8.10;;;1.87;;
21022;SDS011;10669;51.076;3.714;2022-09-09T00:31:08;5.40;;;1.80;;
21022;SDS011;10669;51.076;3.714;2022-09-09T00:33:38;4.63;;;2.00;;
21022;SDS011;10669;51.076;3.714;2022-09-09T00:36:07;7.87;;;2.10;;
21022;SDS011;10669;51.076;3.714;2022-09-09T00:43:43;9.57;;;2.07;;
21022;SDS011;10669;51.076;3.714;2022-09-09T00:46:41;8.93;;;2.30;;
21022;SDS011;10669;51.076;3.714;2022-09-09T00:49:20;7.73;;;3.90;;
21022;SDS011;10669;51.076;3.714;2022-09-09T00:58:01;9.47;;;1.87;;
21022;SDS011;10669;51.076;3.714;2022-09-09T01:00:31;5.27;;;1.60;;
21022;SDS011;10669;51.076;3.714;2022-09-09T01:11:03;5.07;;;2.20;;
21022;SDS011;10669;51.076;3.714;2022-09-09T01:13:33;7.73;;;2.20;;
21022;SDS011;10669;51.076;3.714;2022-09-09T01:16:04;6.87;;;1.90;;
21022;SDS011;10669;51.076;3.714;2022-09-09T01:18:37;10.97;;;2.00;;
21022;SDS011;10669;51.076;3.714;2022-09-09T01:21:12;7.70;;;1.80;;
21022;SDS011;10669;51.076;3.714;2022-09-09T01:28:46;6.43;;;1.80;;
21022;SDS011;10669;51.076;3.714;2022-09-09T01:31:18;7.50;;;2.30;;
21022;SDS011;10669;51.076;3.714;2022-09-09T01:33:51;7.13;;;1.93;;
21022;SDS011;10669;51.076;3.714;2022-09-09T01:36:31;7.10;;;2.43;;
21022;SDS011;10669;51.076;3.714;2022-09-09T01:39:04;5.57;;;1.97;;
21022;SDS011;10669;51.076;3.714;2022-09-09T01:41:30;6.27;;;2.00;;
21022;SDS011;10669;51.076;3.714;2022-09-09T01:43:56;9.33;;;2.37;;
21022;SDS011;10669;51.076;3.714;2022-09-09T01:46:22;11.07;;;2.17;;
21022;SDS011;10669;51.076;3.714;2022-09-09T01:48:51;7.20;;;1.70;;
21022;SDS011;10669;51.076;3.714;2022-09-09T01:51:18;7.07;;;2.30;;
21022;SDS011;10669;51.076;3.714;2022-09-09T01:53:45;8.23;;;1.87;;
21022;SDS011;10669;51.076;3.714;2022-09-09T01:56:19;3.87;;;1.73;;
21022;SDS011;10669;51.076;3.714;2022-09-09T02:05:19;5.87;;;1.60;;
21022;SDS011;10669;51.076;3.714;2022-09-09T02:07:47;5.90;;;1.83;;
21022;SDS011;10669;51.076;3.714;2022-09-09T02:10:28;5.83;;;1.63;;
21022;SDS011;10669;51.076;3.714;2022-09-09T02:13:10;7.53;;;2.10;;
21022;SDS011;10669;51.076;3.714;2022-09-09T02:18:11;4.33;;;1.60;;
21022;SDS011;10669;51.076;3.714;2022-09-09T02:20:39;5.40;;;2.10;;
21022;SDS011;10669;51.076;3.714;2022-09-09T02:23:06;7.37;;;1.70;;
21022;SDS011;10669;51.076;3.714;2022-09-09T02:25:34;18.50;;;2.47;;
21022;SDS011;10669;51.076;3.714;2022-09-09T02:28:02;9.40;;;2.13;;
21022;SDS011;10669;51.076;3.714;2022-09-09T02:30:32;11.60;;;2.67;;
21022;SDS011;10669;51.076;3.714;2022-09-09T02:33:01;12.10;;;2.53;;
21022;SDS011;10669;51.076;3.714;2022-09-09T02:35:31;7.37;;;2.30;;
21022;SDS011;10669;51.076;3.714;2022-09-09T02:38:04;8.33;;;2.10;;
21022;SDS011;10669;51.076;3.714;2022-09-09T02:40:33;12.13;;;2.30;;
21022;SDS011;10669;51.076;3.714;2022-09-09T02:42:59;10.20;;;2.40;;
21022;SDS011;10669;51.076;3.714;2022-09-09T02:45:25;4.50;;;1.80;;
21022;SDS011;10669;51.076;3.714;2022-09-09T02:48:03;8.87;;;2.30;;
21022;SDS011;10669;51.076;3.714;2022-09-09T02:50:39;10.40;;;2.27;;
21022;SDS011;10669;51.076;3.714;2022-09-09T02:55:59;12.43;;;2.80;;
21022;SDS011;10669;51.076;3.714;2022-09-09T02:58:30;9.00;;;2.20;;
21022;SDS011;10669;51.076;3.714;2022-09-09T03:00:56;12.17;;;2.57;;
21022;SDS011;10669;51.076;3.714;2022-09-09T03:03:23;11.23;;;2.43;;
21022;SDS011;10669;51.076;3.714;2022-09-09T03:05:49;8.87;;;2.37;;
21022;SDS011;10669;51.076;3.714;2022-09-09T03:08:15;12.67;;;2.40;;
21022;SDS011;10669;51.076;3.714;2022-09-09T03:10:42;8.63;;;2.20;;
21022;SDS011;10669;51.076;3.714;2022-09-09T03:13:08;11.30;;;2.40;;
21022;SDS011;10669;51.076;3.714;2022-09-09T03:15:33;10.87;;;3.20;;
21022;SDS011;10669;51.076;3.714;2022-09-09T03:18:00;9.73;;;2.20;;
21022;SDS011;10669;51.076;3.714;2022-09-09T03:20:27;16.47;;;2.90;;
21022;SDS011;10669;51.076;3.714;2022-09-09T03:22:55;13.33;;;2.33;;
21022;SDS011;10669;51.076;3.714;2022-09-09T03:25:22;9.67;;;2.77;;
21022;SDS011;10669;51.076;3.714;2022-09-09T03:27:52;8.73;;;2.87;;
21022;SDS011;10669;51.076;3.714;2022-09-09T03:30:20;13.37;;;2.80;;
21022;SDS011;10669;51.076;3.714;2022-09-09T03:32:47;19.17;;;3.10;;
21022;SDS011;10669;51.076;3.714;2022-09-09T03:35:13;13.00;;;2.90;;
21022;SDS011;10669;51.076;3.714;2022-09-09T03:37:40;11.43;;;3.10;;
21022;SDS011;10669;51.076;3.714;2022-09-09T03:40:06;11.30;;;2.83;;
21022;SDS011;10669;51.076;3.714;2022-09-09T03:42:38;7.33;;;2.17;;
21022;SDS011;10669;51.076;3.714;2022-09-09T03:45:08;9.80;;;2.60;;
21022;SDS011;10669;51.076;3.714;2022-09-09T03:47:35;10.57;;;2.70;;
21022;SDS011;10669;51.076;3.714;2022-09-09T03:50:01;11.97;;;2.73;;
21022;SDS011;10669;51.076;3.714;2022-09-09T03:52:29;10.43;;;2.80;;
21022;SDS011;10669;51.076;3.714;2022-09-09T03:54:55;12.63;;;3.17;;
21022;SDS011;10669;51.076;3.714;2022-09-09T03:57:21;11.03;;;2.87;;
21022;SDS011;10669;51.076;3.714;2022-09-09T03:59:48;13.30;;;2.33;;
21022;SDS011;10669;51.076;3.714;2022-09-09T04:02:14;17.70;;;3.10;;
21022;SDS011;10669;51.076;3.714;2022-09-09T04:04:40;8.80;;;2.67;;
21022;SDS011;10669;51.076;3.714;2022-09-09T04:07:06;13.67;;;3.03;;
21022;SDS011;10669;51.076;3.714;2022-09-09T04:09:32;9.97;;;2.90;;
21022;SDS011;10669;51.076;3.714;2022-09-09T04:11:59;12.67;;;3.10;;
21022;SDS011;10669;51.076;3.714;2022-09-09T04:14:25;13.70;;;3.10;;
21022;SDS011;10669;51.076;3.714;2022-09-09T04:16:54;17.30;;;3.40;;
21022;SDS011;10669;51.076;3.714;2022-09-09T04:19:23;12.63;;;3.13;;
21022;SDS011;10669;51.076;3.714;2022-09-09T04:21:49;10.13;;;2.87;;
21022;SDS011;10669;51.076;3.714;2022-09-09T04:24:16;12.20;;;2.80;;
21022;SDS011;10669;51.076;3.714;2022-09-09T04:26:43;12.90;;;3.10;;
21022;SDS011;10669;51.076;3.714;2022-09-09T04:29:08;12.43;;;2.77;;
21022;SDS011;10669;51.076;3.714;2022-09-09T04:31:34;15.37;;;3.00;;
21022;SDS011;10669;51.076;3.714;2022-09-09T04:34:01;9.73;;;2.87;;
21022;SDS011;10669;51.076;3.714;2022-09-09T04:36:32;9.40;;;2.40;;
21022;SDS011;10669;51.076;3.714;2022-09-09T04:38:59;10.50;;;2.63;;
21022;SDS011;10669;51.076;3.714;2022-09-09T04:41:24;15.37;;;3.13;;
21022;SDS011;10669;51.076;3.714;2022-09-09T04:43:51;12.27;;;3.30;;
21022;SDS011;10669;51.076;3.714;2022-09-09T04:46:18;13.23;;;3.30;;
21022;SDS011;10669;51.076;3.714;2022-09-09T04:48:44;16.97;;;3.73;;
21022;SDS011;10669;51.076;3.714;2022-09-09T04:51:12;12.40;;;3.33;;
21022;SDS011;10669;51.076;3.714;2022-09-09T04:56:11;11.60;;;3.30;;
21022;SDS011;10669;51.076;3.714;2022-09-09T04:58:40;10.03;;;3.07;;
21022;SDS011;10669;51.076;3.714;2022-09-09T05:01:12;15.47;;;3.70;;
21022;SDS011;10669;51.076;3.714;2022-09-09T05:03:41;15.20;;;4.03;;
21022;SDS011;10669;51.076;3.714;2022-09-09T05:06:08;17.37;;;3.53;;
21022;SDS011;10669;51.076;3.714;2022-09-09T05:08:38;17.57;;;3.20;;
21022;SDS011;10669;51.076;3.714;2022-09-09T05:11:16;12.97;;;3.67;;
21022;SDS011;10669;51.076;3.714;2022-09-09T05:13:51;9.60;;;3.13;;
21022;SDS011;10669;51.076;3.714;2022-09-09T05:16:19;14.93;;;3.13;;
21022;SDS011;10669;51.076;3.714;2022-09-09T05:18:46;11.40;;;3.77;;
21022;SDS011;10669;51.076;3.714;2022-09-09T05:21:12;10.80;;;3.60;;
21022;SDS011;10669;51.076;3.714;2022-09-09T05:23:39;13.10;;;4.63;;
21022;SDS011;10669;51.076;3.714;2022-09-09T05:26:06;12.20;;;4.07;;
21022;SDS011;10669;51.076;3.714;2022-09-09T05:28:34;17.33;;;4.03;;
21022;SDS011;10669;51.076;3.714;2022-09-09T05:31:03;13.73;;;4.20;;
21022;SDS011;10669;51.076;3.714;2022-09-09T05:33:33;20.10;;;4.83;;
21022;SDS011;10669;51.076;3.714;2022-09-09T05:36:04;15.23;;;4.30;;
21022;SDS011;10669;51.076;3.714;2022-09-09T05:38:33;14.83;;;4.67;;
21022;SDS011;10669;51.076;3.714;2022-09-09T05:41:00;20.17;;;4.37;;
21022;SDS011;10669;51.076;3.714;2022-09-09T05:43:27;13.77;;;3.40;;
21022;SDS011;10669;51.076;3.714;2022-09-09T05:48:36;15.30;;;4.37;;
21022;SDS011;10669;51.076;3.714;2022-09-09T05:51:04;15.87;;;4.30;;
21022;SDS011;10669;51.076;3.714;2022-09-09T05:53:34;21.10;;;4.70;;
21022;SDS011;10669;51.076;3.714;2022-09-09T05:56:08;16.17;;;4.40;;
21022;SDS011;10669;51.076;3.714;2022-09-09T05:58:44;18.70;;;3.87;;
21022;SDS011;10669;51.076;3.714;2022-09-09T06:01:16;13.73;;;3.70;;
21022;SDS011;10669;51.076;3.714;2022-09-09T06:03:44;16.10;;;4.27;;
21022;SDS011;10669;51.076;3.714;2022-09-09T06:06:11;13.33;;;5.03;;
21022;SDS011;10669;51.076;3.714;2022-09-09T06:08:40;15.43;;;4.73;;
21022;SDS011;10669;51.076;3.714;2022-09-09T06:11:14;19.77;;;5.97;;
21022;SDS011;10669;51.076;3.714;2022-09-09T06:13:44;13.47;;;4.30;;
21022;SDS011;10669;51.076;3.714;2022-09-09T06:16:12;16.43;;;4.30;;
21022;SDS011;10669;51.076;3.714;2022-09-09T06:18:40;15.30;;;4.70;;
21022;SDS011;10669;51.076;3.714;2022-09-09T06:21:08;15.37;;;4.47;;
21022;SDS011;10669;51.076;3.714;2022-09-09T06:23:39;18.33;;;4.57;;
21022;SDS011;10669;51.076;3.714;2022-09-09T06:26:06;16.30;;;4.70;;
21022;SDS011;10669;51.076;3.714;2022-09-09T06:28:37;15.93;;;4.60;;
21022;SDS011;10669;51.076;3.714;2022-09-09T06:31:04;15.93;;;4.80;;
21022;SDS011;10669;51.076;3.714;2022-09-09T06:33:38;16.73;;;6.23;;
21022;SDS011;10669;51.076;3.714;2022-09-09T06:36:07;11.87;;;4.20;;
21022;SDS011;10669;51.076;3.714;2022-09-09T06:38:38;9.33;;;4.23;;
21022;SDS011;10669;51.076;3.714;2022-09-09T06:41:04;16.53;;;4.00;;
21022;SDS011;10669;51.076;3.714;2022-09-09T06:43:31;14.40;;;4.57;;
21022;SDS011;10669;51.076;3.714;2022-09-09T06:45:58;18.37;;;5.83;;
21022;SDS011;10669;51.076;3.714;2022-09-09T06:48:25;19.13;;;4.47;;
21022;SDS011;10669;51.076;3.714;2022-09-09T06:51:03;14.80;;;4.10;;
21022;SDS011;10669;51.076;3.714;2022-09-09T06:53:31;14.23;;;6.27;;
21022;SDS011;10669;51.076;3.714;2022-09-09T06:56:01;15.30;;;4.17;;
21022;SDS011;10669;51.076;3.714;2022-09-09T06:58:49;12.63;;;4.07;;
21022;SDS011;10669;51.076;3.714;2022-09-09T07:01:19;15.20;;;4.17;;
21022;SDS011;10669;51.076;3.714;2022-09-09T07:03:50;17.77;;;4.23;;
21022;SDS011;10669;51.076;3.714;2022-09-09T07:06:25;18.17;;;3.97;;
21022;SDS011;10669;51.076;3.714;2022-09-09T07:08:56;13.47;;;3.43;;
21022;SDS011;10669;51.076;3.714;2022-09-09T07:11:37;16.50;;;3.70;;
21022;SDS011;10669;51.076;3.714;2022-09-09T07:14:06;14.43;;;4.10;;
21022;SDS011;10669;51.076;3.714;2022-09-09T07:16:33;9.93;;;3.07;;
21022;SDS011;10669;51.076;3.714;2022-09-09T07:19:02;12.00;;;3.13;;
21022;SDS011;10669;51.076;3.714;2022-09-09T07:21:29;13.37;;;2.43;;
21022;SDS011;10669;51.076;3.714;2022-09-09T07:23:55;13.37;;;3.33;;
21022;SDS011;10669;51.076;3.714;2022-09-09T07:26:23;14.27;;;5.03;;
21022;SDS011;10669;51.076;3.714;2022-09-09T07:28:50;18.20;;;3.53;;
21022;SDS011;10669;51.076;3.714;2022-09-09T07:31:18;19.73;;;4.73;;
21022;SDS011;10669;51.076;3.714;2022-09-09T07:33:46;9.67;;;2.83;;
21022;SDS011;10669;51.076;3.714;2022-09-09T07:36:15;9.53;;;3.07;;
21022;SDS011;10669;51.076;3.714;2022-09-09T07:38:47;10.93;;;3.17;;
21022;SDS011;10669;51.076;3.714;2022-09-09T07:41:15;17.40;;;3.60;;
21022;SDS011;10669;51.076;3.714;2022-09-09T07:43:43;13.03;;;3.10;;
21022;SDS011;10669;51.076;3.714;2022-09-09T07:46:11;11.80;;;2.50;;
21022;SDS011;10669;51.076;3.714;2022-09-09T07:48:49;9.97;;;3.07;;
21022;SDS011;10669;51.076;3.714;2022-09-09T07:51:21;8.87;;;2.77;;
21022;SDS011;10669;51.076;3.714;2022-09-09T07:53:51;9.07;;;2.93;;
21022;SDS011;10669;51.076;3.714;2022-09-09T07:56:19;9.20;;;2.73;;
21022;SDS011;10669;51.076;3.714;2022-09-09T07:58:49;14.40;;;3.30;;
21022;SDS011;10669;51.076;3.714;2022-09-09T08:01:20;11.47;;;2.87;;
21022;SDS011;10669;51.076;3.714;2022-09-09T08:03:57;16.50;;;3.47;;
21022;SDS011;10669;51.076;3.714;2022-09-09T08:06:28;9.53;;;3.30;;
21022;SDS011;10669;51.076;3.714;2022-09-09T08:08:56;8.00;;;2.90;;
21022;SDS011;10669;51.076;3.714;2022-09-09T08:11:23;13.00;;;2.97;;
21022;SDS011;10669;51.076;3.714;2022-09-09T08:13:50;13.30;;;2.90;;
21022;SDS011;10669;51.076;3.714;2022-09-09T08:16:18;12.40;;;3.07;;
21022;SDS011;10669;51.076;3.714;2022-09-09T08:18:50;14.30;;;2.90;;
21022;SDS011;10669;51.076;3.714;2022-09-09T08:21:20;13.20;;;3.90;;
21022;SDS011;10669;51.076;3.714;2022-09-09T08:23:49;15.03;;;2.80;;
21022;SDS011;10669;51.076;3.714;2022-09-09T08:26:38;10.60;;;2.83;;
21022;SDS011;10669;51.076;3.714;2022-09-09T08:29:06;11.13;;;2.80;;
21022;SDS011;10669;51.076;3.714;2022-09-09T08:31:35;10.97;;;3.17;;
21022;SDS011;10669;51.076;3.714;2022-09-09T08:34:05;12.00;;;3.03;;
21022;SDS011;10669;51.076;3.714;2022-09-09T08:36:34;11.10;;;2.80;;
21022;SDS011;10669;51.076;3.714;2022-09-09T08:39:02;10.30;;;2.87;;
21022;SDS011;10669;51.076;3.714;2022-09-09T08:44:37;8.20;;;2.60;;
21022;SDS011;10669;51.076;3.714;2022-09-09T08:50:35;9.80;;;2.53;;
21022;SDS011;10669;51.076;3.714;2022-09-09T08:56:10;6.47;;;2.37;;
21022;SDS011;10669;51.076;3.714;2022-09-09T08:58:42;9.93;;;3.00;;
21022;SDS011;10669;51.076;3.714;2022-09-09T09:09:36;8.13;;;2.40;;
21022;SDS011;10669;51.076;3.714;2022-09-09T09:12:25;7.70;;;2.53;;
21022;SDS011;10669;51.076;3.714;2022-09-09T09:14:55;7.47;;;2.50;;
21022;SDS011;10669;51.076;3.714;2022-09-09T09:17:23;8.80;;;2.87;;
21022;SDS011;10669;51.076;3.714;2022-09-09T09:19:52;7.80;;;2.97;;
21022;SDS011;10669;51.076;3.714;2022-09-09T09:25:21;5.77;;;2.40;;
21022;SDS011;10669;51.076;3.714;2022-09-09T09:30:40;10.67;;;2.73;;
21022;SDS011;10669;51.076;3.714;2022-09-09T09:35:53;6.37;;;2.23;;
21022;SDS011;10669;51.076;3.714;2022-09-09T09:38:21;12.13;;;2.97;;
21022;SDS011;10669;51.076;3.714;2022-09-09T09:40:54;12.63;;;2.63;;
21022;SDS011;10669;51.076;3.714;2022-09-09T09:43:39;7.37;;;2.03;;
21022;SDS011;10669;51.076;3.714;2022-09-09T09:46:18;8.07;;;2.53;;
21022;SDS011;10669;51.076;3.714;2022-09-09T09:49:04;10.80;;;2.77;;
21022;SDS011;10669;51.076;3.714;2022-09-09T09:51:34;7.67;;;2.13;;
21022;SDS011;10669;51.076;3.714;2022-09-09T09:54:11;6.07;;;2.53;;
21022;SDS011;10669;51.076;3.714;2022-09-09T09:56:40;6.07;;;2.50;;
21022;SDS011;10669;51.076;3.714;2022-09-09T09:59:19;5.23;;;2.03;;
21022;SDS011;10669;51.076;3.714;2022-09-09T10:01:46;10.53;;;2.33;;
21022;SDS011;10669;51.076;3.714;2022-09-09T10:04:17;9.67;;;2.70;;
21022;SDS011;10669;51.076;3.714;2022-09-09T10:06:45;7.67;;;2.70;;
21022;SDS011;10669;51.076;3.714;2022-09-09T10:09:22;6.50;;;2.17;;
21022;SDS011;10669;51.076;3.714;2022-09-09T10:14:52;8.17;;;2.67;;
21022;SDS011;10669;51.076;3.714;2022-09-09T10:22:57;8.93;;;2.67;;
21022;SDS011;10669;51.076;3.714;2022-09-09T10:28:33;9.30;;;2.40;;
21022;SDS011;10669;51.076;3.714;2022-09-09T10:34:09;4.87;;;2.33;;
21022;SDS011;10669;51.076;3.714;2022-09-09T10:36:57;7.23;;;1.77;;
21022;SDS011;10669;51.076;3.714;2022-09-09T10:39:32;5.40;;;1.87;;
21022;SDS011;10669;51.076;3.714;2022-09-09T10:42:07;9.00;;;2.00;;
21022;SDS011;10669;51.076;3.714;2022-09-09T10:44:48;3.07;;;1.73;;
21022;SDS011;10669;51.076;3.714;2022-09-09T10:53:36;4.90;;;1.80;;
21022;SDS011;10669;51.076;3.714;2022-09-09T10:55:51;6.20;;;1.80;;
21022;SDS011;10669;51.076;3.714;2022-09-09T10:58:23;10.07;;;2.10;;
21022;SDS011;10669;51.076;3.714;2022-09-09T11:00:55;8.07;;;2.13;;
21022;SDS011;10669;51.076;3.714;2022-09-09T11:03:28;8.30;;;1.92;;
21022;SDS011;10669;51.076;3.714;2022-09-09T11:06:05;5.22;;;2.00;;
21022;SDS011;10669;51.076;3.714;2022-09-09T11:08:37;4.82;;;1.95;;
21022;SDS011;10669;51.076;3.714;2022-09-09T11:11:06;6.38;;;1.85;;
21022;SDS011;10669;51.076;3.714;2022-09-09T11:21:38;2.17;;;1.35;;
21022;SDS011;10669;51.076;3.714;2022-09-09T11:29:56;6.55;;;2.08;;
21022;SDS011;10669;51.076;3.714;2022-09-09T11:40:37;4.60;;;1.70;;
21022;SDS011;10669;51.076;3.714;2022-09-09T11:43:05;7.00;;;1.80;;
21022;SDS011;10669;51.076;3.714;2022-09-09T11:45:40;6.20;;;1.50;;
21022;SDS011;10669;51.076;3.714;2022-09-09T11:48:28;4.25;;;1.38;;
21022;SDS011;10669;51.076;3.714;2022-09-09T11:51:04;5.03;;;1.27;;
21022;SDS011;10669;51.076;3.714;2022-09-09T11:53:46;4.97;;;1.38;;
21022;SDS011;10669;51.076;3.714;2022-09-09T11:56:30;3.22;;;1.35;;
21022;SDS011;10669;51.076;3.714;2022-09-09T11:59:20;5.93;;;1.63;;
21022;SDS011;10669;51.076;3.714;2022-09-09T12:02:10;5.38;;;1.15;;
21022;SDS011;10669;51.076;3.714;2022-09-09T12:04:46;4.95;;;1.38;;
21022;SDS011;10669;51.076;3.714;2022-09-09T12:07:40;2.03;;;1.05;;
21022;SDS011;10669;51.076;3.714;2022-09-09T12:12:52;6.57;;;1.98;;
21022;SDS011;10669;51.076;3.714;2022-09-09T12:17:49;3.97;;;1.08;;
21022;SDS011;10669;51.076;3.714;2022-09-09T12:20:21;3.80;;;1.55;;
21022;SDS011;10669;51.076;3.714;2022-09-09T12:32:18;7.05;;;1.67;;
21022;SDS011;10669;51.076;3.714;2022-09-09T12:34:47;4.65;;;1.42;;
21022;SDS011;10669;51.076;3.714;2022-09-09T12:40:04;8.38;;;2.20;;
21022;SDS011;10669;51.076;3.714;2022-09-09T12:42:50;3.10;;;1.33;;
21022;SDS011;10669;51.076;3.714;2022-09-09T12:45:19;7.38;;;1.42;;
21022;SDS011;10669;51.076;3.714;2022-09-09T12:48:05;2.92;;;1.25;;
21022;SDS011;10669;51.076;3.714;2022-09-09T12:50:37;5.88;;;1.40;;
21022;SDS011;10669;51.076;3.714;2022-09-09T12:53:22;2.92;;;1.30;;
21022;SDS011;10669;51.076;3.714;2022-09-09T12:56:00;4.80;;;1.55;;
21022;SDS011;10669;51.076;3.714;2022-09-09T12:58:32;5.05;;;1.63;;
21022;SDS011;10669;51.076;3.714;2022-09-09T13:00:58;3.50;;;1.23;;
21022;SDS011;10669;51.076;3.714;2022-09-09T13:03:26;8.88;;;2.13;;
21022;SDS011;10669;51.076;3.714;2022-09-09T13:05:53;4.25;;;1.65;;
21022;SDS011;10669;51.076;3.714;2022-09-09T13:08:25;3.80;;;1.17;;
21022;SDS011;10669;51.076;3.714;2022-09-09T13:13:22;4.85;;;1.50;;
21022;SDS011;10669;51.076;3.714;2022-09-09T13:15:54;5.28;;;1.65;;
21022;SDS011;10669;51.076;3.714;2022-09-09T13:18:33;5.72;;;1.75;;
21022;SDS011;10669;51.076;3.714;2022-09-09T13:21:01;5.93;;;2.40;;
21022;SDS011;10669;51.076;3.714;2022-09-09T13:23:32;5.00;;;1.52;;
21022;SDS011;10669;51.076;3.714;2022-09-09T13:26:02;3.42;;;1.83;;
21022;SDS011;10669;51.076;3.714;2022-09-09T13:28:45;4.15;;;1.80;;
21022;SDS011;10669;51.076;3.714;2022-09-09T13:36:14;4.50;;;1.73;;
21022;SDS011;10669;51.076;3.714;2022-09-09T13:38:52;7.32;;;1.60;;
21022;SDS011;10669;51.076;3.714;2022-09-09T13:41:25;5.30;;;1.40;;
21022;SDS011;10669;51.076;3.714;2022-09-09T13:43:55;3.67;;;1.27;;
21022;SDS011;10669;51.076;3.714;2022-09-09T13:48:58;4.28;;;1.38;;
21022;SDS011;10669;51.076;3.714;2022-09-09T13:51:30;3.90;;;1.38;;
21022;SDS011;10669;51.076;3.714;2022-09-09T13:54:11;9.52;;;1.50;;
21022;SDS011;10669;51.076;3.714;2022-09-09T13:56:40;3.92;;;1.45;;
21022;SDS011;10669;51.076;3.714;2022-09-09T13:59:11;4.95;;;1.35;;
21022;SDS011;10669;51.076;3.714;2022-09-09T14:01:42;3.47;;;1.42;;
21022;SDS011;10669;51.076;3.714;2022-09-09T14:04:08;9.88;;;4.38;;
21022;SDS011;10669;51.076;3.714;2022-09-09T14:06:34;3.05;;;1.45;;
21022;SDS011;10669;51.076;3.714;2022-09-09T14:09:03;5.65;;;1.85;;
21022;SDS011;10669;51.076;3.714;2022-09-09T14:11:29;3.78;;;1.08;;
21022;SDS011;10669;51.076;3.714;2022-09-09T14:13:55;6.00;;;1.33;;
21022;SDS011;10669;51.076;3.714;2022-09-09T14:16:21;3.53;;;1.13;;
21022;SDS011;10669;51.076;3.714;2022-09-09T14:18:46;1.67;;;0.95;;
21022;SDS011;10669;51.076;3.714;2022-09-09T14:21:13;3.80;;;1.17;;
21022;SDS011;10669;51.076;3.714;2022-09-09T14:23:40;3.72;;;1.38;;
21022;SDS011;10669;51.076;3.714;2022-09-09T14:26:06;6.05;;;1.30;;
21022;SDS011;10669;51.076;3.714;2022-09-09T14:28:35;3.80;;;1.50;;
21022;SDS011;10669;51.076;3.714;2022-09-09T14:31:03;8.00;;;1.67;;
21022;SDS011;10669;51.076;3.714;2022-09-09T14:33:30;3.38;;;1.33;;
21022;SDS011;10669;51.076;3.714;2022-09-09T14:35:59;4.20;;;1.08;;
21022;SDS011;10669;51.076;3.714;2022-09-09T14:38:30;1.85;;;1.15;;
21022;SDS011;10669;51.076;3.714;2022-09-09T14:40:58;3.53;;;1.85;;
21022;SDS011;10669;51.076;3.714;2022-09-09T14:43:24;4.15;;;1.50;;
21022;SDS011;10669;51.076;3.714;2022-09-09T14:45:51;3.92;;;1.10;;
21022;SDS011;10669;51.076;3.714;2022-09-09T14:48:17;3.55;;;1.63;;
21022;SDS011;10669;51.076;3.714;2022-09-09T14:50:43;4.35;;;1.60;;
21022;SDS011;10669;51.076;3.714;2022-09-09T14:53:09;2.92;;;1.17;;
21022;SDS011;10669;51.076;3.714;2022-09-09T14:55:36;3.10;;;1.23;;
21022;SDS011;10669;51.076;3.714;2022-09-09T14:58:03;3.67;;;1.10;;
21022;SDS011;10669;51.076;3.714;2022-09-09T15:00:32;3.80;;;1.38;;
21022;SDS011;10669;51.076;3.714;2022-09-09T15:02:58;6.03;;;2.30;;
21022;SDS011;10669;51.076;3.714;2022-09-09T15:05:23;7.53;;;2.33;;
21022;SDS011;10669;51.076;3.714;2022-09-09T15:07:49;6.32;;;2.00;;
21022;SDS011;10669;51.076;3.714;2022-09-09T15:10:17;6.80;;;2.30;;
21022;SDS011;10669;51.076;3.714;2022-09-09T15:12:44;3.85;;;1.85;;
21022;SDS011;10669;51.076;3.714;2022-09-09T15:15:10;5.78;;;2.38;;
21022;SDS011;10669;51.076;3.714;2022-09-09T15:17:38;5.78;;;2.20;;
21022;SDS011;10669;51.076;3.714;2022-09-09T15:20:04;8.13;;;2.50;;
21022;SDS011;10669;51.076;3.714;2022-09-09T15:22:32;5.00;;;2.88;;
21022;SDS011;10669;51.076;3.714;2022-09-09T15:24:58;9.38;;;2.70;;
21022;SDS011;10669;51.076;3.714;2022-09-09T15:27:26;7.82;;;2.33;;
21022;SDS011;10669;51.076;3.714;2022-09-09T15:29:52;4.55;;;2.70;;
21022;SDS011;10669;51.076;3.714;2022-09-09T15:32:17;6.88;;;2.28;;
21022;SDS011;10669;51.076;3.714;2022-09-09T15:34:44;5.05;;;2.58;;
21022;SDS011;10669;51.076;3.714;2022-09-09T15:37:11;5.88;;;2.40;;
21022;SDS011;10669;51.076;3.714;2022-09-09T15:39:40;7.80;;;2.65;;
21022;SDS011;10669;51.076;3.714;2022-09-09T15:42:07;5.85;;;2.35;;
21022;SDS011;10669;51.076;3.714;2022-09-09T15:44:41;5.97;;;2.10;;
21022;SDS011;10669;51.076;3.714;2022-09-09T15:47:10;5.40;;;2.10;;
21022;SDS011;10669;51.076;3.714;2022-09-09T15:49:43;8.57;;;3.13;;
21022;SDS011;10669;51.076;3.714;2022-09-09T15:52:12;5.53;;;2.80;;
21022;SDS011;10669;51.076;3.714;2022-09-09T15:54:38;6.10;;;2.92;;
21022;SDS011;10669;51.076;3.714;2022-09-09T15:57:05;6.50;;;2.63;;
21022;SDS011;10669;51.076;3.714;2022-09-09T15:59:32;7.85;;;3.00;;
21022;SDS011;10669;51.076;3.714;2022-09-09T16:02:02;7.20;;;2.80;;
21022;SDS011;10669;51.076;3.714;2022-09-09T16:04:28;8.73;;;3.22;;
21022;SDS011;10669;51.076;3.714;2022-09-09T16:06:57;7.13;;;2.63;;
21022;SDS011;10669;51.076;3.714;2022-09-09T16:09:28;9.15;;;2.30;;
21022;SDS011;10669;51.076;3.714;2022-09-09T16:11:58;8.65;;;2.60;;
21022;SDS011;10669;51.076;3.714;2022-09-09T16:14:28;5.90;;;2.03;;
21022;SDS011;10669;51.076;3.714;2022-09-09T16:16:59;5.13;;;2.05;;
21022;SDS011;10669;51.076;3.714;2022-09-09T16:19:27;5.22;;;2.00;;
21022;SDS011;10669;51.076;3.714;2022-09-09T16:21:52;2.55;;;1.60;;
21022;SDS011;10669;51.076;3.714;2022-09-09T16:24:20;3.70;;;2.10;;
21022;SDS011;10669;51.076;3.714;2022-09-09T16:26:49;3.22;;;1.95;;
21022;SDS011;10669;51.076;3.714;2022-09-09T16:29:18;7.13;;;2.40;;
21022;SDS011;10669;51.076;3.714;2022-09-09T16:31:48;5.22;;;2.00;;
21022;SDS011;10669;51.076;3.714;2022-09-09T16:36:44;6.97;;;2.08;;
21022;SDS011;10669;51.076;3.714;2022-09-09T16:39:12;7.03;;;2.28;;
21022;SDS011;10669;51.076;3.714;2022-09-09T16:41:42;3.33;;;1.80;;
21022;SDS011;10669;51.076;3.714;2022-09-09T16:44:11;4.75;;;2.20;;
21022;SDS011;10669;51.076;3.714;2022-09-09T16:46:38;5.75;;;2.33;;
21022;SDS011;10669;51.076;3.714;2022-09-09T16:49:11;8.68;;;2.45;;
21022;SDS011;10669;51.076;3.714;2022-09-09T16:51:39;6.25;;;2.30;;
21022;SDS011;10669;51.076;3.714;2022-09-09T16:54:07;5.13;;;2.28;;
21022;SDS011;10669;51.076;3.714;2022-09-09T16:56:34;6.35;;;2.40;;
21022;SDS011;10669;51.076;3.714;2022-09-09T16:59:03;5.10;;;2.20;;
21022;SDS011;10669;51.076;3.714;2022-09-09T17:01:34;7.43;;;2.42;;
21022;SDS011;10669;51.076;3.714;2022-09-09T17:04:06;6.93;;;2.30;;
21022;SDS011;10669;51.076;3.714;2022-09-09T17:06:34;6.35;;;2.78;;
21022;SDS011;10669;51.076;3.714;2022-09-09T17:09:02;9.18;;;2.72;;
21022;SDS011;10669;51.076;3.714;2022-09-09T17:11:30;7.75;;;2.75;;
21022;SDS011;10669;51.076;3.714;2022-09-09T17:13:56;11.20;;;2.90;;
21022;SDS011;10669;51.076;3.714;2022-09-09T17:16:24;4.65;;;2.25;;
21022;SDS011;10669;51.076;3.714;2022-09-09T17:18:52;7.53;;;3.45;;
21022;SDS011;10669;51.076;3.714;2022-09-09T17:21:20;6.80;;;3.42;;
21022;SDS011;10669;51.076;3.714;2022-09-09T17:23:48;7.35;;;3.90;;
21022;SDS011;10669;51.076;3.714;2022-09-09T17:26:15;9.20;;;3.85;;
21022;SDS011;10669;51.076;3.714;2022-09-09T17:28:43;5.82;;;2.53;;
21022;SDS011;10669;51.076;3.714;2022-09-09T17:31:10;5.35;;;2.28;;